This is the latest recevied weather packets stored in our database for station/object KC3HIX. If no packets are shown the sender has not sent any weather packets the latest 10 day(s).
| Time | Temp. | Humidity | Pressure | Rain* | Wind** | Luminosity | Snow |
|---|---|---|---|---|---|---|---|
| 1777972804 | 12.22° C | 82% | 1008.6 hPa | 0 mm | - | - | - |
| 1777972505 | 12.22° C | 82% | 1008.2 hPa | 0 mm | - | - | - |
| 1777971604 | 12.78° C | 81% | 1008.2 hPa | 0 mm | - | - | - |
| 1777971025 | 12.78° C | 81% | 1008.2 hPa | 0 mm | - | - | - |
| 1777967704 | 14.44° C | 71% | 1008.2 hPa | 0 mm | - | - | - |
| 1777966804 | 14.44° C | 73% | 1008.2 hPa | 0 mm | - | - | - |
| 1777963525 | 13.89° C | 71% | 1007.9 hPa | 0 mm | - | - | - |
| 1777959925 | 16.11° C | 62% | 1008.2 hPa | 0 mm | - | - | - |
| 1777954203 | 16.11° C | 56% | 1007.9 hPa | 0 mm | - | - | - |
| 1777950924 | 16.67° C | 56% | 1007.9 hPa | 0 mm | - | - | - |
| 1777949403 | 17.78° C | 50% | 1007.9 hPa | 0 mm | - | - | - |
| 1777947630 | 17.78° C | 49% | 1007.9 hPa | 0 mm | - | - | - |
| 1777947008 | 17.78° C | 49% | 1007.9 hPa | 0 mm | - | - | - |
| 1777945208 | 18.89° C | 47% | 1007.9 hPa | 0 mm | - | - | - |
| 1777944608 | 18.89° C | 47% | 1007.5 hPa | 0 mm | - | - | - |
| 1777944008 | 18.89° C | 47% | 1007.5 hPa | 0 mm | - | - | - |
| 1777943429 | 18.89° C | 46% | 1007.5 hPa | 0 mm | - | - | - |
| 1777943108 | 18.89° C | 46% | 1007.5 hPa | 0 mm | - | - | - |
| 1777941908 | 19.44° C | 46% | 1007.2 hPa | 0 mm | - | - | - |
| 1777941608 | 19.44° C | 47% | 1007.2 hPa | 0 mm | - | - | - |
| 1777940708 | 20° C | 46% | 1007.2 hPa | 0 mm | - | - | - |
| 1777940408 | 20° C | 45% | 1007.2 hPa | 0 mm | - | - | - |
| 1777938308 | 20.56° C | 43% | 1006.8 hPa | 0 mm | - | - | - |
| 1777937429 | 21.11° C | 43% | 1006.8 hPa | 0 mm | - | - | - |
| 1777935608 | 21.67° C | 40% | 1006.5 hPa | 0 mm | - | - | - |
* Rain latest hour (hover to see other rain measurements)
** Current wind speed in m/s (hover to see current wind gust speed)